Cross Roads, Texas
Current Conditions -  °F | °C
As of 1:15 PM on Thursday 27 Nov 2014 (Local Time) from KT35 Reporting Station
Clear Clear  
Wind Chill: 60°   Ceiling: Unl
Heat Index: 60°   Visibility: 7mi
Dew Point: 25°   Wind: 0mph
Humidity: 26%   Direction: NA
Pressure: 30.47"   Gusts: NA
Location:  30.8332°N, 96.9826°W
Report Text: KT35 271915Z AUTO 00000KT 7SM CLR 16/M04 A3047 RMK AO2 T01561039
Loading
Personal Weather Stations






























Interactive Weather Map New forecast layout! Learn more

10-Day Weather Forecast

Advertisements
Track Severe Weather on mobile